createdAt,value
2022-08-23T00:02:22.941Z,0.60
2022-08-23T00:05:00.560Z,0.50
2022-08-23T00:07:38.732Z,0.52
2022-08-23T00:10:07.920Z,0.73
2022-08-23T00:12:35.032Z,0.70
2022-08-23T00:15:02.150Z,0.60
2022-08-23T00:17:34.106Z,0.50
2022-08-23T00:20:09.024Z,0.65
2022-08-23T00:22:36.740Z,0.60
2022-08-23T00:25:05.445Z,0.68
2022-08-23T00:27:33.588Z,0.73
2022-08-23T00:30:02.202Z,0.52
2022-08-23T00:32:35.141Z,0.60
2022-08-23T00:35:03.336Z,0.62
2022-08-23T00:37:32.536Z,0.50
2022-08-23T00:40:01.185Z,0.62
2022-08-23T00:43:01.883Z,0.57
2022-08-23T00:46:01.259Z,0.70
2022-08-23T00:48:28.264Z,0.47
2022-08-23T00:50:59.391Z,0.70
2022-08-23T00:53:29.730Z,0.60
2022-08-23T00:55:59.840Z,0.70
2022-08-23T00:58:27.423Z,0.50
2022-08-23T01:00:55.649Z,0.70
2022-08-23T01:03:24.112Z,0.70
2022-08-23T01:05:57.500Z,0.60
2022-08-23T01:08:26.639Z,0.90
2022-08-23T01:11:15.474Z,0.90
2022-08-23T01:13:53.150Z,0.70
2022-08-23T01:16:26.312Z,0.80
2022-08-23T01:18:55.194Z,0.90
2022-08-23T01:21:29.997Z,0.60
2022-08-23T01:24:01.750Z,0.65
2022-08-23T01:26:28.836Z,0.70
2022-08-23T01:28:55.803Z,0.50
2022-08-23T01:31:24.063Z,0.60
2022-08-23T01:33:59.621Z,0.80
2022-08-23T01:36:27.315Z,0.52
2022-08-23T01:38:54.772Z,0.47
2022-08-23T01:41:21.751Z,0.70
2022-08-23T01:43:48.746Z,0.60
2022-08-23T01:46:18.295Z,0.82
2022-08-23T01:48:47.028Z,0.43
2022-08-23T01:51:16.919Z,0.47
2022-08-23T01:53:44.632Z,0.70
2022-08-23T01:56:11.595Z,0.50
2022-08-23T01:58:38.606Z,0.50
2022-08-23T02:01:06.655Z,0.73
2022-08-23T02:03:34.145Z,0.80
2022-08-23T02:06:01.126Z,0.50
2022-08-23T02:08:46.463Z,0.45
2022-08-23T02:11:16.410Z,0.62
2022-08-23T02:13:43.990Z,0.50
2022-08-23T02:16:14.836Z,0.40
2022-08-23T02:18:42.096Z,0.40
2022-08-23T02:21:09.998Z,0.47
2022-08-23T02:23:37.016Z,0.47
2022-08-23T02:26:04.012Z,0.50
2022-08-23T02:28:30.960Z,0.50
2022-08-23T02:30:57.884Z,0.40
2022-08-23T02:33:25.015Z,0.40
2022-08-23T02:35:51.937Z,0.80
2022-08-23T02:38:18.879Z,0.40
2022-08-23T02:40:45.879Z,0.40
2022-08-23T02:43:12.788Z,0.40
2022-08-23T02:45:40.705Z,0.50
2022-08-23T02:48:08.863Z,0.50
2022-08-23T02:50:36.253Z,0.57
2022-08-23T02:53:03.398Z,0.43
2022-08-23T02:55:30.764Z,0.50
2022-08-23T02:57:58.574Z,0.45
2022-08-23T03:00:25.950Z,0.50
2022-08-23T03:02:52.979Z,0.50
2022-08-23T03:05:20.100Z,0.32
2022-08-23T03:07:47.030Z,0.40
2022-08-23T03:10:14.052Z,0.62
2022-08-23T03:12:40.963Z,0.40
2022-08-23T03:15:08.578Z,0.50
2022-08-23T03:17:35.927Z,0.43
2022-08-23T03:20:03.049Z,0.80
2022-08-23T03:22:30.019Z,0.47
2022-08-23T03:24:57.489Z,0.35
2022-08-23T03:27:24.411Z,0.40
2022-08-23T03:29:51.342Z,0.40
2022-08-23T03:32:18.282Z,0.50
2022-08-23T03:34:45.901Z,0.30
2022-08-23T03:37:12.904Z,0.85
2022-08-23T03:39:39.926Z,0.40
2022-08-23T03:42:06.987Z,0.43
2022-08-23T03:44:34.030Z,0.60
2022-08-23T03:47:01.125Z,0.50
2022-08-23T03:49:28.069Z,0.60
2022-08-23T03:51:55.170Z,0.50
2022-08-23T03:54:22.782Z,0.47
2022-08-23T03:56:52.718Z,0.55
2022-08-23T03:59:19.669Z,0.40
2022-08-23T04:01:46.667Z,0.40
2022-08-23T04:04:14.207Z,1.02
2022-08-23T04:06:41.646Z,0.43
2022-08-23T04:09:08.624Z,0.50
2022-08-23T04:11:35.537Z,0.65
2022-08-23T04:14:02.583Z,0.70
2022-08-23T04:16:33.521Z,0.60
2022-08-23T04:19:00.853Z,0.55
2022-08-23T04:21:28.048Z,0.50
2022-08-23T04:23:55.063Z,0.45
2022-08-23T04:26:22.061Z,0.40
2022-08-23T04:28:49.669Z,0.50
2022-08-23T04:31:18.745Z,0.77
2022-08-23T04:33:45.702Z,0.50
2022-08-23T04:36:19.364Z,0.40
2022-08-23T04:38:46.334Z,0.43
2022-08-23T04:41:34.336Z,0.30
2022-08-23T04:44:01.326Z,0.30
2022-08-23T04:46:28.239Z,0.40
2022-08-23T04:48:55.296Z,0.40
2022-08-23T04:51:22.451Z,0.60
2022-08-23T04:53:49.437Z,0.40
2022-08-23T04:56:16.375Z,0.30
2022-08-23T04:58:43.717Z,0.37
2022-08-23T05:01:11.301Z,0.32
2022-08-23T05:03:38.995Z,0.22
2022-08-23T05:06:06.249Z,0.30
2022-08-23T05:08:33.779Z,0.55
2022-08-23T05:11:05.627Z,0.30
2022-08-23T05:13:34.898Z,0.40
2022-08-23T05:16:02.647Z,0.68
2022-08-23T05:18:29.620Z,0.30
2022-08-23T05:20:56.804Z,0.30
2022-08-23T05:23:31.636Z,0.40
2022-08-23T05:25:59.895Z,0.40
2022-08-23T05:28:29.763Z,0.30
2022-08-23T05:30:59.514Z,0.28
2022-08-23T05:33:27.762Z,6.15
2022-08-23T05:35:54.797Z,4.53
2022-08-23T05:38:22.519Z,2.78
2022-08-23T05:40:54.881Z,6.62
2022-08-23T05:43:22.712Z,5.62
2022-08-23T05:45:55.360Z,3.33
2022-08-23T05:48:25.280Z,3.70
2022-08-23T05:50:52.384Z,2.30
2022-08-23T05:53:19.365Z,0.82
2022-08-23T05:55:46.786Z,3.05
2022-08-23T05:58:13.686Z,3.17
2022-08-23T06:00:41.084Z,1.58
2022-08-23T06:03:09.316Z,1.73
2022-08-23T06:05:40.904Z,1.17
2022-08-23T06:08:07.925Z,0.43
2022-08-23T06:10:40.465Z,0.45
2022-08-23T06:13:09.196Z,0.57
2022-08-23T06:15:36.128Z,0.40
2022-08-23T06:18:03.178Z,0.50
2022-08-23T06:20:30.520Z,0.40
2022-08-23T06:22:57.451Z,0.40
2022-08-23T06:25:32.381Z,0.50
2022-08-23T06:27:59.524Z,0.37
2022-08-23T06:30:26.767Z,0.40
2022-08-23T06:32:54.103Z,0.32
2022-08-23T06:35:38.253Z,0.43
2022-08-23T06:38:07.142Z,0.65
2022-08-23T06:40:36.935Z,0.90
2022-08-23T06:43:04.796Z,1.10
2022-08-23T06:45:35.327Z,0.50
2022-08-23T06:48:02.668Z,0.30
2022-08-23T06:50:32.414Z,0.50
2022-08-23T06:52:59.651Z,0.50
2022-08-23T06:55:26.619Z,0.50
2022-08-23T06:57:53.554Z,3.58
2022-08-23T07:00:22.522Z,0.50
2022-08-23T07:02:50.264Z,0.50
2022-08-23T07:05:17.408Z,0.75
2022-08-23T07:07:44.792Z,0.50
2022-08-23T07:10:11.830Z,0.60
2022-08-23T07:12:42.879Z,0.70
2022-08-23T07:15:13.294Z,0.70
2022-08-23T07:17:40.221Z,0.50
2022-08-23T07:20:07.755Z,0.50
2022-08-23T07:22:34.703Z,0.47
2022-08-23T07:25:02.288Z,0.43
2022-08-23T07:27:29.294Z,0.60
2022-08-23T07:29:56.422Z,0.60
2022-08-23T07:32:23.359Z,0.60
2022-08-23T07:34:50.345Z,0.70
2022-08-23T07:37:18.860Z,0.90
2022-08-23T07:39:46.194Z,1.02
2022-08-23T07:42:23.746Z,5.05
2022-08-23T07:44:52.726Z,4.18
2022-08-23T07:47:21.506Z,4.50
2022-08-23T07:49:48.502Z,3.00
2022-08-23T07:52:15.541Z,7.45
2022-08-23T07:54:43.545Z,3.05
2022-08-23T07:57:15.639Z,2.87
2022-08-23T07:59:42.562Z,12.45
2022-08-23T08:02:09.879Z,1.25
2022-08-23T08:04:37.613Z,0.90
2022-08-23T08:07:18.880Z,1.20
2022-08-23T08:09:47.475Z,1.73
2022-08-23T08:12:14.595Z,3.92
2022-08-23T08:14:42.684Z,1.40
2022-08-23T08:17:09.946Z,1.55
2022-08-23T08:19:36.940Z,3.70
2022-08-23T08:22:03.987Z,2.50
2022-08-23T08:24:30.939Z,2.08
2022-08-23T08:26:57.904Z,1.37
2022-08-23T08:29:25.101Z,1.10
2022-08-23T08:31:54.340Z,1.30
2022-08-23T08:34:22.108Z,1.12
2022-08-23T08:36:55.128Z,1.25
2022-08-23T08:39:24.917Z,1.12
2022-08-23T08:42:10.992Z,1.45
2022-08-23T08:44:42.424Z,1.48
2022-08-23T08:47:15.054Z,1.12
2022-08-23T08:50:08.199Z,1.00
2022-08-23T08:52:39.996Z,1.20
2022-08-23T08:55:19.887Z,7.30
2022-08-23T08:57:49.036Z,1.98
2022-08-23T09:00:23.520Z,1.45
2022-08-23T09:02:51.004Z,2.53
2022-08-23T09:05:31.940Z,1.30
2022-08-23T09:08:20.434Z,12.70
2022-08-23T09:11:32.916Z,5.03
2022-08-23T09:14:24.381Z,18.02
2022-08-23T09:16:57.115Z,19.62
2022-08-23T09:19:25.444Z,17.02
2022-08-23T09:21:57.014Z,1.60
2022-08-23T09:24:24.096Z,0.95
2022-08-23T09:26:53.896Z,1.30
2022-08-23T09:29:22.788Z,1.45
2022-08-23T09:31:53.168Z,3.60
2022-08-23T09:34:37.694Z,11.80
2022-08-23T09:37:11.858Z,6.37
2022-08-23T09:39:42.373Z,9.57
2022-08-23T09:42:27.400Z,1.27
2022-08-23T09:44:54.521Z,1.25
2022-08-23T09:47:31.958Z,7.45
2022-08-23T09:52:33.603Z,2.15
2022-08-23T09:55:03.678Z,1.50
2022-08-23T09:57:32.627Z,1.25
2022-08-23T10:00:15.668Z,1.00
2022-08-23T10:02:42.802Z,1.00
2022-08-23T10:05:15.901Z,1.27
2022-08-23T10:07:45.889Z,0.85
2022-08-23T10:10:29.355Z,1.20
2022-08-23T10:12:57.196Z,1.00
2022-08-23T10:15:49.694Z,1.10
2022-08-23T10:18:23.828Z,2.78
2022-08-23T10:21:02.476Z,1.25
2022-08-23T10:23:42.429Z,1.40
2022-08-23T10:26:33.411Z,1.12
2022-08-23T10:29:39.231Z,1.30
2022-08-23T10:32:06.139Z,1.77
2022-08-23T10:35:02.350Z,1.00
2022-08-23T10:38:00.491Z,1.00
2022-08-23T10:41:07.188Z,1.30
2022-08-23T10:44:18.942Z,1.48
2022-08-23T10:46:58.453Z,1.70
2022-08-23T10:49:26.769Z,1.23
2022-08-23T10:51:53.766Z,1.27
2022-08-23T10:54:35.306Z,1.20
2022-08-23T10:57:03.479Z,1.40
2022-08-23T10:59:30.864Z,1.23
2022-08-23T11:02:16.906Z,1.10
2022-08-23T11:04:53.033Z,1.02
2022-08-23T11:07:23.842Z,2.20
2022-08-23T11:10:18.287Z,1.40
2022-08-23T11:13:15.938Z,1.10
2022-08-23T11:16:15.769Z,1.00
2022-08-23T11:18:47.577Z,1.55
2022-08-23T11:21:26.813Z,1.60
2022-08-23T11:23:59.772Z,1.05
2022-08-23T11:26:26.622Z,1.50
2022-08-23T11:29:22.506Z,1.23
2022-08-23T11:32:03.477Z,1.30
2022-08-23T11:34:42.469Z,1.60
2022-08-23T11:37:23.409Z,1.50
2022-08-23T11:39:59.567Z,2.03
2022-08-23T11:42:38.848Z,1.50
2022-08-23T11:45:40.664Z,1.62
2022-08-23T11:48:38.344Z,1.67
2022-08-23T11:51:41.982Z,1.75
2022-08-23T11:54:19.886Z,1.90
2022-08-23T11:56:51.612Z,1.95
2022-08-23T11:59:25.036Z,1.65
2022-08-23T12:01:52.457Z,2.42
2022-08-23T12:04:42.390Z,2.00
2022-08-23T12:07:13.382Z,2.20
2022-08-23T12:09:40.249Z,2.30
2022-08-23T12:12:27.265Z,2.35
2022-08-23T12:15:00.583Z,2.62
2022-08-23T12:17:28.828Z,2.50
2022-08-23T12:19:58.739Z,2.45
2022-08-23T12:22:30.244Z,3.08
2022-08-23T12:25:00.802Z,2.87
2022-08-23T12:27:34.413Z,2.40
2022-08-23T12:30:11.054Z,2.80
2022-08-23T12:32:46.192Z,2.70
2022-08-23T12:35:48.689Z,3.20
2022-08-23T12:38:27.894Z,3.12
2022-08-23T12:40:56.784Z,3.60
2022-08-23T12:43:27.013Z,3.17
2022-08-23T12:46:01.064Z,3.12
2022-08-23T12:48:34.127Z,3.60
2022-08-23T12:51:04.433Z,3.10
2022-08-23T12:53:41.373Z,2.90
2022-08-23T12:56:31.409Z,2.78
2022-08-23T12:59:04.712Z,2.70
2022-08-23T13:01:35.843Z,3.28
2022-08-23T13:04:15.024Z,2.60
2022-08-23T13:06:45.158Z,2.40
2022-08-23T13:09:16.898Z,2.50
2022-08-23T13:11:44.437Z,2.50
2022-08-23T13:14:26.035Z,2.53
2022-08-23T13:17:12.750Z,2.35
2022-08-23T13:19:40.002Z,2.20
2022-08-23T13:22:22.525Z,1.90
2022-08-23T13:25:28.688Z,2.10
2022-08-23T13:28:02.906Z,1.70
2022-08-23T13:30:36.361Z,1.90
2022-08-23T13:33:07.728Z,1.65
2022-08-23T13:35:40.815Z,1.70
2022-08-23T13:38:21.412Z,5.93
2022-08-23T13:41:14.065Z,2.20
2022-08-23T13:43:45.021Z,1.45
2022-08-23T13:46:18.127Z,1.23
2022-08-23T13:49:19.944Z,1.20
2022-08-23T13:54:53.050Z,1.62
2022-08-23T13:57:21.381Z,1.10
2022-08-23T13:59:53.919Z,0.90
2022-08-23T14:02:22.321Z,1.05
2022-08-23T14:04:49.535Z,0.70
2022-08-23T14:07:17.672Z,0.82
2022-08-23T14:09:44.641Z,1.20
2022-08-23T14:12:22.137Z,1.40
2022-08-23T14:14:49.534Z,1.20
2022-08-23T14:17:17.160Z,1.10
2022-08-23T14:22:34.995Z,0.90
2022-08-23T14:25:02.051Z,0.90
2022-08-23T14:27:29.055Z,0.70
2022-08-23T14:29:56.006Z,0.80
2022-08-23T14:32:23.048Z,0.90
2022-08-23T14:34:50.590Z,1.00
2022-08-23T14:38:00.555Z,1.30
2022-08-23T14:40:05.108Z,1.00
2022-08-23T14:42:32.289Z,1.00
2022-08-23T14:45:00.299Z,1.20
2022-08-23T14:47:27.301Z,1.10
2022-08-23T14:49:54.394Z,1.35
2022-08-23T14:52:21.749Z,1.20
2022-08-23T14:54:49.562Z,1.60
2022-08-23T14:57:16.807Z,1.67
2022-08-23T14:59:43.747Z,1.58
2022-08-23T15:02:12.824Z,1.70
2022-08-23T15:04:40.585Z,1.83
2022-08-23T15:07:17.579Z,2.37
2022-08-23T15:09:48.784Z,2.08
2022-08-23T15:15:06.907Z,2.10
2022-08-23T15:17:38.053Z,1.95
2022-08-23T15:20:05.951Z,2.17
2022-08-23T15:22:32.935Z,2.25
2022-08-23T15:25:08.284Z,2.10
2022-08-23T15:27:35.225Z,2.00
2022-08-23T15:30:02.587Z,2.15
2022-08-23T15:32:29.556Z,2.30
2022-08-23T15:35:00.043Z,2.70
2022-08-23T15:37:27.724Z,2.30
2022-08-23T15:39:54.670Z,2.37
2022-08-23T15:42:21.607Z,2.00
2022-08-23T15:44:49.484Z,2.40
2022-08-23T15:47:29.230Z,2.30
2022-08-23T15:49:58.261Z,2.40
2022-08-23T15:52:24.977Z,2.50
2022-08-23T15:54:52.010Z,2.20
2022-08-23T15:57:23.839Z,2.50
2022-08-23T15:59:56.645Z,2.50
2022-08-23T16:02:23.606Z,2.37
2022-08-23T16:04:50.588Z,2.55
2022-08-23T16:07:18.094Z,2.47
2022-08-23T16:09:45.538Z,2.78
2022-08-23T16:12:12.513Z,2.45
2022-08-23T16:14:39.496Z,2.70
2022-08-23T16:17:07.626Z,2.92
2022-08-23T16:19:34.528Z,2.67
2022-08-23T16:22:01.800Z,2.83
2022-08-23T16:24:29.623Z,2.33
2022-08-23T16:26:56.536Z,2.80
2022-08-23T16:29:23.783Z,3.10
2022-08-23T16:31:51.027Z,3.10
2022-08-23T16:34:20.167Z,3.10
2022-08-23T16:36:50.058Z,3.03
2022-08-23T16:39:18.085Z,3.37
2022-08-23T16:41:45.147Z,3.03
2022-08-23T16:44:12.329Z,3.20
2022-08-23T16:46:44.098Z,2.75
2022-08-23T16:49:12.665Z,3.35
2022-08-23T16:51:39.599Z,3.20
2022-08-23T16:54:08.483Z,3.22
2022-08-23T16:56:36.908Z,3.03
2022-08-23T16:59:05.545Z,3.35
2022-08-23T17:01:44.539Z,3.08
2022-08-23T17:04:12.769Z,3.12
2022-08-23T17:06:40.313Z,3.22
2022-08-23T17:09:07.336Z,3.30
2022-08-23T17:11:35.691Z,3.00
2022-08-23T17:14:05.191Z,3.03
2022-08-23T17:16:32.769Z,3.20
2022-08-23T17:18:59.794Z,3.00
2022-08-23T17:21:27.034Z,3.70
2022-08-23T17:23:54.007Z,3.33
2022-08-23T17:26:21.060Z,3.10
2022-08-23T17:28:48.394Z,3.15
2022-08-23T17:31:16.504Z,2.80
2022-08-23T17:33:43.560Z,3.30
2022-08-23T17:36:25.775Z,3.37
2022-08-23T17:38:52.766Z,3.37
2022-08-23T17:41:19.697Z,3.28
2022-08-23T17:43:46.660Z,3.42
2022-08-23T17:46:13.740Z,3.33
2022-08-23T17:48:40.760Z,3.28
2022-08-23T17:51:07.727Z,3.55
2022-08-23T17:53:35.112Z,3.80
2022-08-23T17:56:02.270Z,3.55
2022-08-23T17:58:32.821Z,3.42
2022-08-23T18:01:01.442Z,3.58
2022-08-23T18:03:28.378Z,3.58
2022-08-23T18:05:55.302Z,3.92
2022-08-23T18:08:22.264Z,3.70
2022-08-23T18:10:49.300Z,3.97
2022-08-23T18:13:16.268Z,3.85
2022-08-23T18:15:43.232Z,4.20
2022-08-23T18:18:10.198Z,3.92
2022-08-23T18:20:37.344Z,4.12
2022-08-23T18:23:05.085Z,4.37
2022-08-23T18:25:32.074Z,4.05
2022-08-23T18:28:11.764Z,4.50
2022-08-23T18:30:51.864Z,3.83
2022-08-23T18:33:19.920Z,4.35
2022-08-23T18:35:52.654Z,3.90
2022-08-23T18:38:20.338Z,4.10
2022-08-23T18:40:48.161Z,4.12
2022-08-23T18:43:20.857Z,4.10
2022-08-23T18:45:49.095Z,4.10
2022-08-23T18:48:16.338Z,4.12
2022-08-23T18:50:43.723Z,3.97
2022-08-23T18:53:15.712Z,3.83
2022-08-23T18:55:43.114Z,4.07
2022-08-23T18:58:10.535Z,3.78
2022-08-23T19:00:38.549Z,4.18
2022-08-23T19:03:06.671Z,3.75
2022-08-23T19:05:42.044Z,3.70
2022-08-23T19:08:13.590Z,3.78
2022-08-23T19:10:42.030Z,3.90
2022-08-23T19:13:10.809Z,3.75
2022-08-23T19:15:40.589Z,3.65
2022-08-23T19:18:07.659Z,4.00
2022-08-23T19:20:34.759Z,3.50
2022-08-23T19:23:02.099Z,3.65
2022-08-23T19:25:31.624Z,3.37
2022-08-23T19:27:58.731Z,3.25
2022-08-23T19:30:28.311Z,3.22
2022-08-23T19:32:56.727Z,3.50
2022-08-23T19:35:24.025Z,3.33
2022-08-23T19:37:51.021Z,3.58
2022-08-23T19:40:18.156Z,3.05
2022-08-23T19:42:45.099Z,3.12
2022-08-23T19:45:12.505Z,3.17
2022-08-23T19:47:40.672Z,3.10
2022-08-23T19:50:09.791Z,3.50
2022-08-23T19:52:37.326Z,3.30
2022-08-23T19:55:07.411Z,3.37
2022-08-23T19:57:35.433Z,3.58
2022-08-23T20:00:06.420Z,3.50
2022-08-23T20:02:33.385Z,3.60
2022-08-23T20:05:00.374Z,3.58
2022-08-23T20:07:27.352Z,3.78
2022-08-23T20:09:56.861Z,4.15
2022-08-23T20:12:25.248Z,3.67
2022-08-23T20:14:52.219Z,3.67
2022-08-23T20:17:19.110Z,3.60
2022-08-23T20:19:47.165Z,3.75
2022-08-23T20:22:32.475Z,3.83
2022-08-23T20:24:59.640Z,3.97
2022-08-23T20:27:30.811Z,3.90
2022-08-23T20:30:00.482Z,3.70
2022-08-23T20:32:28.290Z,3.92
2022-08-23T20:34:55.276Z,3.80
2022-08-23T20:37:22.188Z,3.70
2022-08-23T20:39:49.147Z,3.80
2022-08-23T20:42:16.514Z,3.65
2022-08-23T20:44:43.475Z,3.40
2022-08-23T20:47:10.971Z,3.85
2022-08-23T20:49:37.923Z,3.85
2022-08-23T20:52:05.662Z,3.92
2022-08-23T20:54:33.028Z,3.62
2022-08-23T20:57:00.324Z,4.12
2022-08-23T20:59:27.592Z,3.90
2022-08-23T21:01:54.627Z,3.70
2022-08-23T21:04:21.614Z,3.90
2022-08-23T21:06:57.741Z,3.70
2022-08-23T21:09:29.429Z,4.10
2022-08-23T21:11:57.355Z,3.97
2022-08-23T21:14:24.396Z,3.62
2022-08-23T21:16:51.319Z,3.78
2022-08-23T21:19:19.109Z,4.03
2022-08-23T21:21:46.124Z,4.03
2022-08-23T21:24:13.369Z,4.15
2022-08-23T21:26:41.150Z,4.00
2022-08-23T21:29:08.736Z,3.83
2022-08-23T21:31:36.357Z,3.90
2022-08-23T21:34:03.434Z,4.47
2022-08-23T21:36:30.544Z,3.92
2022-08-23T21:38:57.429Z,3.60
2022-08-23T21:41:38.547Z,3.80
2022-08-23T21:44:08.555Z,4.07
2022-08-23T21:46:35.999Z,3.80
2022-08-23T21:49:03.739Z,4.10
2022-08-23T21:51:30.776Z,3.90
2022-08-23T21:53:58.664Z,4.03
2022-08-23T21:56:26.406Z,4.07
2022-08-23T21:58:57.413Z,4.18
2022-08-23T22:01:24.334Z,3.70
2022-08-23T22:03:54.966Z,4.12
2022-08-23T22:06:24.204Z,4.37
2022-08-23T22:08:51.161Z,4.93
2022-08-23T22:11:18.125Z,4.82
2022-08-23T22:13:45.427Z,4.80
2022-08-23T22:16:12.758Z,4.95
2022-08-23T22:18:39.756Z,4.65
2022-08-23T22:21:07.238Z,5.22
2022-08-23T22:23:36.422Z,5.03
2022-08-23T22:26:06.688Z,4.55
2022-08-23T22:28:34.360Z,4.80
2022-08-23T22:31:02.157Z,5.30
2022-08-23T22:33:29.572Z,4.87
2022-08-23T22:36:04.221Z,4.70
2022-08-23T22:38:31.120Z,4.68
2022-08-23T22:40:58.511Z,4.95
2022-08-23T22:43:25.582Z,5.37
2022-08-23T22:46:01.440Z,4.85
2022-08-23T22:51:07.238Z,4.57
2022-08-23T22:53:38.239Z,4.60
2022-08-23T22:56:05.947Z,4.85
2022-08-23T22:58:33.803Z,4.85
2022-08-23T23:01:02.006Z,5.15
2022-08-23T23:03:34.039Z,5.20
2022-08-23T23:06:01.739Z,5.15
2022-08-23T23:08:28.678Z,4.90
2022-08-23T23:10:59.976Z,5.10
2022-08-23T23:13:29.612Z,5.18
2022-08-23T23:15:57.054Z,5.65
2022-08-23T23:18:25.088Z,5.30
2022-08-23T23:20:52.740Z,5.45
2022-08-23T23:23:22.441Z,5.53
2022-08-23T23:25:50.252Z,5.20
2022-08-23T23:28:18.880Z,5.45
2022-08-23T23:30:47.980Z,5.00
2022-08-23T23:33:15.382Z,5.55
2022-08-23T23:35:42.735Z,5.53
2022-08-23T23:38:10.468Z,5.85
2022-08-23T23:40:37.981Z,4.90
2022-08-23T23:43:05.562Z,5.40
2022-08-23T23:45:37.154Z,5.18
2022-08-23T23:48:04.427Z,5.70
2022-08-23T23:50:35.412Z,5.43
2022-08-23T23:53:02.719Z,5.40
2022-08-23T23:55:29.806Z,5.47
2022-08-23T23:57:56.754Z,6.00
